sensor_id;sensor_type;location;lat;lon;timestamp;P1;durP1;ratioP1;P2;durP2;ratioP2
20505;SDS011;10411;48.148;7.704;2022-08-16T00:01:18;21.17;;;19.63;;
20505;SDS011;10411;48.148;7.704;2022-08-16T00:03:44;21.00;;;19.60;;
20505;SDS011;10411;48.148;7.704;2022-08-16T00:06:11;20.80;;;19.30;;
20505;SDS011;10411;48.148;7.704;2022-08-16T00:08:40;20.90;;;19.27;;
20505;SDS011;10411;48.148;7.704;2022-08-16T00:11:07;20.63;;;19.07;;
20505;SDS011;10411;48.148;7.704;2022-08-16T00:13:34;19.73;;;18.53;;
20505;SDS011;10411;48.148;7.704;2022-08-16T00:16:00;20.00;;;18.63;;
20505;SDS011;10411;48.148;7.704;2022-08-16T00:18:26;19.87;;;18.60;;
20505;SDS011;10411;48.148;7.704;2022-08-16T00:20:52;20.10;;;18.50;;
20505;SDS011;10411;48.148;7.704;2022-08-16T00:23:18;20.70;;;19.20;;
20505;SDS011;10411;48.148;7.704;2022-08-16T00:25:44;19.87;;;18.57;;
20505;SDS011;10411;48.148;7.704;2022-08-16T00:28:10;19.73;;;18.43;;
20505;SDS011;10411;48.148;7.704;2022-08-16T00:30:36;19.30;;;17.80;;
20505;SDS011;10411;48.148;7.704;2022-08-16T00:33:03;20.17;;;18.37;;
20505;SDS011;10411;48.148;7.704;2022-08-16T00:35:33;20.13;;;18.73;;
20505;SDS011;10411;48.148;7.704;2022-08-16T00:37:59;19.87;;;18.70;;
20505;SDS011;10411;48.148;7.704;2022-08-16T00:40:31;19.60;;;18.20;;
20505;SDS011;10411;48.148;7.704;2022-08-16T00:42:58;19.10;;;17.90;;
20505;SDS011;10411;48.148;7.704;2022-08-16T00:45:30;19.70;;;18.40;;
20505;SDS011;10411;48.148;7.704;2022-08-16T00:47:59;19.20;;;18.03;;
20505;SDS011;10411;48.148;7.704;2022-08-16T00:50:28;20.50;;;18.73;;
20505;SDS011;10411;48.148;7.704;2022-08-16T00:52:57;20.27;;;18.83;;
20505;SDS011;10411;48.148;7.704;2022-08-16T00:55:23;19.63;;;18.33;;
20505;SDS011;10411;48.148;7.704;2022-08-16T00:57:51;19.77;;;18.57;;
20505;SDS011;10411;48.148;7.704;2022-08-16T01:00:18;20.10;;;18.70;;
20505;SDS011;10411;48.148;7.704;2022-08-16T01:02:44;20.70;;;19.10;;
20505;SDS011;10411;48.148;7.704;2022-08-16T01:05:10;21.03;;;19.43;;
20505;SDS011;10411;48.148;7.704;2022-08-16T01:07:36;21.10;;;19.70;;
20505;SDS011;10411;48.148;7.704;2022-08-16T01:10:03;21.63;;;19.97;;
20505;SDS011;10411;48.148;7.704;2022-08-16T01:12:29;20.83;;;19.23;;
20505;SDS011;10411;48.148;7.704;2022-08-16T01:14:55;20.93;;;19.33;;
20505;SDS011;10411;48.148;7.704;2022-08-16T01:17:22;20.60;;;19.10;;
20505;SDS011;10411;48.148;7.704;2022-08-16T01:19:51;20.63;;;19.33;;
20505;SDS011;10411;48.148;7.704;2022-08-16T01:22:25;20.57;;;18.97;;
20505;SDS011;10411;48.148;7.704;2022-08-16T01:24:54;20.37;;;18.97;;
20505;SDS011;10411;48.148;7.704;2022-08-16T01:27:23;20.13;;;18.70;;
20505;SDS011;10411;48.148;7.704;2022-08-16T01:29:58;19.93;;;18.67;;
20505;SDS011;10411;48.148;7.704;2022-08-16T01:32:26;19.67;;;18.37;;
20505;SDS011;10411;48.148;7.704;2022-08-16T01:34:52;20.27;;;18.80;;
20505;SDS011;10411;48.148;7.704;2022-08-16T01:37:18;20.27;;;19.00;;
20505;SDS011;10411;48.148;7.704;2022-08-16T01:39:45;20.90;;;19.60;;
20505;SDS011;10411;48.148;7.704;2022-08-16T01:42:11;20.50;;;19.30;;
20505;SDS011;10411;48.148;7.704;2022-08-16T01:44:37;20.40;;;19.03;;
20505;SDS011;10411;48.148;7.704;2022-08-16T01:47:04;20.47;;;19.00;;
20505;SDS011;10411;48.148;7.704;2022-08-16T01:49:32;21.00;;;19.50;;
20505;SDS011;10411;48.148;7.704;2022-08-16T01:51:59;20.60;;;19.20;;
20505;SDS011;10411;48.148;7.704;2022-08-16T01:54:25;20.73;;;19.23;;
20505;SDS011;10411;48.148;7.704;2022-08-16T01:56:52;19.77;;;18.53;;
20505;SDS011;10411;48.148;7.704;2022-08-16T01:59:19;20.57;;;19.00;;
20505;SDS011;10411;48.148;7.704;2022-08-16T02:01:45;20.70;;;19.30;;
20505;SDS011;10411;48.148;7.704;2022-08-16T02:04:11;20.57;;;19.03;;
20505;SDS011;10411;48.148;7.704;2022-08-16T02:06:38;21.23;;;19.40;;
20505;SDS011;10411;48.148;7.704;2022-08-16T02:09:05;20.60;;;19.13;;
20505;SDS011;10411;48.148;7.704;2022-08-16T02:11:31;19.93;;;18.80;;
20505;SDS011;10411;48.148;7.704;2022-08-16T02:13:57;20.50;;;19.13;;
20505;SDS011;10411;48.148;7.704;2022-08-16T02:16:23;20.10;;;18.87;;
20505;SDS011;10411;48.148;7.704;2022-08-16T02:18:50;20.53;;;19.00;;
20505;SDS011;10411;48.148;7.704;2022-08-16T02:21:16;21.07;;;19.67;;
20505;SDS011;10411;48.148;7.704;2022-08-16T02:23:43;21.03;;;19.60;;
20505;SDS011;10411;48.148;7.704;2022-08-16T02:26:09;20.90;;;19.47;;
20505;SDS011;10411;48.148;7.704;2022-08-16T02:28:35;20.97;;;19.37;;
20505;SDS011;10411;48.148;7.704;2022-08-16T02:31:04;19.73;;;18.53;;
20505;SDS011;10411;48.148;7.704;2022-08-16T02:33:31;20.03;;;18.63;;
20505;SDS011;10411;48.148;7.704;2022-08-16T02:35:57;20.27;;;18.67;;
20505;SDS011;10411;48.148;7.704;2022-08-16T02:38:23;19.83;;;18.53;;
20505;SDS011;10411;48.148;7.704;2022-08-16T02:40:49;20.90;;;19.40;;
20505;SDS011;10411;48.148;7.704;2022-08-16T02:43:15;20.10;;;18.47;;
20505;SDS011;10411;48.148;7.704;2022-08-16T02:45:41;21.20;;;19.53;;
20505;SDS011;10411;48.148;7.704;2022-08-16T02:48:07;20.83;;;19.37;;
20505;SDS011;10411;48.148;7.704;2022-08-16T02:50:33;19.57;;;18.27;;
20505;SDS011;10411;48.148;7.704;2022-08-16T02:52:59;20.97;;;19.37;;
20505;SDS011;10411;48.148;7.704;2022-08-16T02:55:25;21.40;;;19.70;;
20505;SDS011;10411;48.148;7.704;2022-08-16T02:57:51;20.10;;;18.80;;
20505;SDS011;10411;48.148;7.704;2022-08-16T03:00:17;20.50;;;19.20;;
20505;SDS011;10411;48.148;7.704;2022-08-16T03:02:43;20.83;;;19.43;;
20505;SDS011;10411;48.148;7.704;2022-08-16T03:05:10;20.67;;;19.33;;
20505;SDS011;10411;48.148;7.704;2022-08-16T03:07:36;21.97;;;20.00;;
20505;SDS011;10411;48.148;7.704;2022-08-16T03:10:03;20.47;;;19.07;;
20505;SDS011;10411;48.148;7.704;2022-08-16T03:12:30;19.67;;;18.40;;
20505;SDS011;10411;48.148;7.704;2022-08-16T03:14:56;19.63;;;18.43;;
20505;SDS011;10411;48.148;7.704;2022-08-16T03:17:21;21.03;;;19.43;;
20505;SDS011;10411;48.148;7.704;2022-08-16T03:19:47;21.00;;;19.50;;
20505;SDS011;10411;48.148;7.704;2022-08-16T03:22:14;20.20;;;18.77;;
20505;SDS011;10411;48.148;7.704;2022-08-16T03:24:40;20.80;;;19.10;;
20505;SDS011;10411;48.148;7.704;2022-08-16T03:27:06;20.60;;;19.13;;
20505;SDS011;10411;48.148;7.704;2022-08-16T03:29:34;20.50;;;19.20;;
20505;SDS011;10411;48.148;7.704;2022-08-16T03:32:00;19.73;;;18.43;;
20505;SDS011;10411;48.148;7.704;2022-08-16T03:34:26;20.47;;;19.20;;
20505;SDS011;10411;48.148;7.704;2022-08-16T03:36:52;20.97;;;19.60;;
20505;SDS011;10411;48.148;7.704;2022-08-16T03:39:18;20.73;;;19.17;;
20505;SDS011;10411;48.148;7.704;2022-08-16T03:41:45;19.23;;;18.03;;
20505;SDS011;10411;48.148;7.704;2022-08-16T03:44:11;20.47;;;18.97;;
20505;SDS011;10411;48.148;7.704;2022-08-16T03:46:37;20.80;;;19.30;;
20505;SDS011;10411;48.148;7.704;2022-08-16T03:49:03;21.30;;;19.90;;
20505;SDS011;10411;48.148;7.704;2022-08-16T03:51:30;20.90;;;19.50;;
20505;SDS011;10411;48.148;7.704;2022-08-16T03:53:56;20.57;;;19.20;;
20505;SDS011;10411;48.148;7.704;2022-08-16T03:56:22;21.43;;;20.00;;
20505;SDS011;10411;48.148;7.704;2022-08-16T03:58:51;20.33;;;18.93;;
20505;SDS011;10411;48.148;7.704;2022-08-16T04:01:17;22.70;;;20.73;;
20505;SDS011;10411;48.148;7.704;2022-08-16T04:03:43;21.97;;;20.37;;
20505;SDS011;10411;48.148;7.704;2022-08-16T04:06:09;22.43;;;20.87;;
20505;SDS011;10411;48.148;7.704;2022-08-16T04:08:35;22.97;;;21.27;;
20505;SDS011;10411;48.148;7.704;2022-08-16T04:11:01;22.13;;;20.63;;
20505;SDS011;10411;48.148;7.704;2022-08-16T04:13:27;22.80;;;21.13;;
20505;SDS011;10411;48.148;7.704;2022-08-16T04:15:54;23.77;;;22.00;;
20505;SDS011;10411;48.148;7.704;2022-08-16T04:18:23;24.30;;;22.33;;
20505;SDS011;10411;48.148;7.704;2022-08-16T04:25:54;23.90;;;22.17;;
20505;SDS011;10411;48.148;7.704;2022-08-16T04:28:20;28.83;;;26.50;;
20505;SDS011;10411;48.148;7.704;2022-08-16T04:30:46;24.90;;;23.10;;
20505;SDS011;10411;48.148;7.704;2022-08-16T04:33:12;25.20;;;23.30;;
20505;SDS011;10411;48.148;7.704;2022-08-16T04:35:38;23.20;;;21.50;;
20505;SDS011;10411;48.148;7.704;2022-08-16T04:38:04;23.17;;;21.43;;
20505;SDS011;10411;48.148;7.704;2022-08-16T04:40:30;23.10;;;21.30;;
20505;SDS011;10411;48.148;7.704;2022-08-16T04:42:56;23.90;;;22.10;;
20505;SDS011;10411;48.148;7.704;2022-08-16T04:45:24;22.47;;;20.90;;
20505;SDS011;10411;48.148;7.704;2022-08-16T04:47:50;23.33;;;21.30;;
20505;SDS011;10411;48.148;7.704;2022-08-16T04:50:18;22.57;;;20.60;;
20505;SDS011;10411;48.148;7.704;2022-08-16T04:52:46;22.77;;;21.23;;
20505;SDS011;10411;48.148;7.704;2022-08-16T04:55:13;22.97;;;21.27;;
20505;SDS011;10411;48.148;7.704;2022-08-16T04:57:39;22.17;;;20.20;;
20505;SDS011;10411;48.148;7.704;2022-08-16T05:00:07;21.37;;;19.93;;
20505;SDS011;10411;48.148;7.704;2022-08-16T05:02:39;22.47;;;20.53;;
20505;SDS011;10411;48.148;7.704;2022-08-16T05:05:08;21.83;;;20.13;;
20505;SDS011;10411;48.148;7.704;2022-08-16T05:07:35;23.47;;;21.63;;
20505;SDS011;10411;48.148;7.704;2022-08-16T05:10:05;25.10;;;22.73;;
20505;SDS011;10411;48.148;7.704;2022-08-16T05:12:31;24.70;;;22.70;;
20505;SDS011;10411;48.148;7.704;2022-08-16T05:14:58;24.73;;;22.53;;
20505;SDS011;10411;48.148;7.704;2022-08-16T05:17:24;23.63;;;21.77;;
20505;SDS011;10411;48.148;7.704;2022-08-16T05:19:50;28.05;;;25.63;;
20505;SDS011;10411;48.148;7.704;2022-08-16T05:22:16;44.85;;;41.45;;
20505;SDS011;10411;48.148;7.704;2022-08-16T05:24:42;41.63;;;38.75;;
20505;SDS011;10411;48.148;7.704;2022-08-16T05:27:08;34.35;;;32.03;;
20505;SDS011;10411;48.148;7.704;2022-08-16T05:29:34;23.77;;;21.80;;
20505;SDS011;10411;48.148;7.704;2022-08-16T05:32:00;22.33;;;20.60;;
20505;SDS011;10411;48.148;7.704;2022-08-16T05:34:27;22.27;;;20.48;;
20505;SDS011;10411;48.148;7.704;2022-08-16T05:36:53;21.95;;;20.27;;
20505;SDS011;10411;48.148;7.704;2022-08-16T05:39:21;22.17;;;20.33;;
20505;SDS011;10411;48.148;7.704;2022-08-16T05:41:47;22.00;;;20.27;;
20505;SDS011;10411;48.148;7.704;2022-08-16T05:44:14;21.77;;;20.30;;
20505;SDS011;10411;48.148;7.704;2022-08-16T05:46:40;21.77;;;20.17;;
20505;SDS011;10411;48.148;7.704;2022-08-16T05:49:09;21.35;;;19.85;;
20505;SDS011;10411;48.148;7.704;2022-08-16T05:51:37;23.67;;;22.00;;
20505;SDS011;10411;48.148;7.704;2022-08-16T05:54:02;25.00;;;22.90;;
20505;SDS011;10411;48.148;7.704;2022-08-16T05:56:28;23.75;;;21.75;;
20505;SDS011;10411;48.148;7.704;2022-08-16T05:58:54;23.67;;;21.83;;
20505;SDS011;10411;48.148;7.704;2022-08-16T06:01:20;24.40;;;22.10;;
20505;SDS011;10411;48.148;7.704;2022-08-16T06:03:46;24.58;;;22.85;;
20505;SDS011;10411;48.148;7.704;2022-08-16T06:06:12;25.08;;;23.23;;
20505;SDS011;10411;48.148;7.704;2022-08-16T06:08:38;25.37;;;23.37;;
20505;SDS011;10411;48.148;7.704;2022-08-16T06:11:05;25.47;;;23.47;;
20505;SDS011;10411;48.148;7.704;2022-08-16T06:13:31;24.90;;;23.20;;
20505;SDS011;10411;48.148;7.704;2022-08-16T06:15:58;24.95;;;23.13;;
20505;SDS011;10411;48.148;7.704;2022-08-16T06:18:24;25.35;;;23.42;;
20505;SDS011;10411;48.148;7.704;2022-08-16T06:20:50;25.67;;;23.30;;
20505;SDS011;10411;48.148;7.704;2022-08-16T06:23:16;24.97;;;23.10;;
20505;SDS011;10411;48.148;7.704;2022-08-16T06:25:42;25.83;;;23.88;;
20505;SDS011;10411;48.148;7.704;2022-08-16T06:28:09;24.65;;;22.95;;
20505;SDS011;10411;48.148;7.704;2022-08-16T06:30:35;25.38;;;23.58;;
20505;SDS011;10411;48.148;7.704;2022-08-16T06:33:02;23.90;;;22.20;;
20505;SDS011;10411;48.148;7.704;2022-08-16T06:35:28;25.05;;;23.35;;
20505;SDS011;10411;48.148;7.704;2022-08-16T06:37:55;23.90;;;22.30;;
20505;SDS011;10411;48.148;7.704;2022-08-16T06:40:21;26.58;;;24.50;;
20505;SDS011;10411;48.148;7.704;2022-08-16T06:42:49;23.88;;;22.30;;
20505;SDS011;10411;48.148;7.704;2022-08-16T06:45:16;24.08;;;22.48;;
20505;SDS011;10411;48.148;7.704;2022-08-16T06:47:42;25.33;;;23.33;;
20505;SDS011;10411;48.148;7.704;2022-08-16T06:50:09;26.60;;;24.13;;
20505;SDS011;10411;48.148;7.704;2022-08-16T06:52:35;25.83;;;23.77;;
20505;SDS011;10411;48.148;7.704;2022-08-16T06:55:05;24.65;;;22.55;;
20505;SDS011;10411;48.148;7.704;2022-08-16T06:57:31;25.77;;;23.67;;
20505;SDS011;10411;48.148;7.704;2022-08-16T06:59:57;24.05;;;22.10;;
20505;SDS011;10411;48.148;7.704;2022-08-16T07:02:23;24.00;;;22.40;;
20505;SDS011;10411;48.148;7.704;2022-08-16T07:04:49;24.45;;;22.55;;
20505;SDS011;10411;48.148;7.704;2022-08-16T07:07:17;24.88;;;23.10;;
20505;SDS011;10411;48.148;7.704;2022-08-16T07:09:44;24.55;;;22.85;;
20505;SDS011;10411;48.148;7.704;2022-08-16T07:12:11;25.20;;;23.10;;
20505;SDS011;10411;48.148;7.704;2022-08-16T07:14:37;24.48;;;22.48;;
20505;SDS011;10411;48.148;7.704;2022-08-16T07:17:03;24.35;;;22.40;;
20505;SDS011;10411;48.148;7.704;2022-08-16T07:19:30;24.50;;;22.60;;
20505;SDS011;10411;48.148;7.704;2022-08-16T07:21:56;25.15;;;23.27;;
20505;SDS011;10411;48.148;7.704;2022-08-16T07:24:22;24.77;;;22.85;;
20505;SDS011;10411;48.148;7.704;2022-08-16T07:26:48;24.45;;;22.52;;
20505;SDS011;10411;48.148;7.704;2022-08-16T07:29:14;25.50;;;23.60;;
20505;SDS011;10411;48.148;7.704;2022-08-16T07:31:40;22.85;;;21.05;;
20505;SDS011;10411;48.148;7.704;2022-08-16T07:34:06;24.33;;;22.63;;
20505;SDS011;10411;48.148;7.704;2022-08-16T07:36:32;24.42;;;22.45;;
20505;SDS011;10411;48.148;7.704;2022-08-16T07:38:59;24.08;;;22.27;;
20505;SDS011;10411;48.148;7.704;2022-08-16T07:41:25;22.90;;;21.40;;
20505;SDS011;10411;48.148;7.704;2022-08-16T07:43:51;23.60;;;21.80;;
20505;SDS011;10411;48.148;7.704;2022-08-16T07:46:17;22.80;;;21.30;;
20505;SDS011;10411;48.148;7.704;2022-08-16T07:48:43;22.70;;;21.20;;
20505;SDS011;10411;48.148;7.704;2022-08-16T07:51:09;25.95;;;23.73;;
20505;SDS011;10411;48.148;7.704;2022-08-16T07:53:35;23.33;;;21.63;;
20505;SDS011;10411;48.148;7.704;2022-08-16T07:56:02;22.10;;;20.60;;
20505;SDS011;10411;48.148;7.704;2022-08-16T07:58:28;22.30;;;20.38;;
20505;SDS011;10411;48.148;7.704;2022-08-16T08:00:55;23.05;;;21.15;;
20505;SDS011;10411;48.148;7.704;2022-08-16T08:03:20;22.77;;;21.08;;
20505;SDS011;10411;48.148;7.704;2022-08-16T08:05:46;23.02;;;21.30;;
20505;SDS011;10411;48.148;7.704;2022-08-16T08:08:12;22.67;;;20.88;;
20505;SDS011;10411;48.148;7.704;2022-08-16T08:10:38;23.20;;;21.40;;
20505;SDS011;10411;48.148;7.704;2022-08-16T08:13:04;22.58;;;21.05;;
20505;SDS011;10411;48.148;7.704;2022-08-16T08:15:30;21.23;;;19.90;;
20505;SDS011;10411;48.148;7.704;2022-08-16T08:17:56;21.27;;;19.85;;
20505;SDS011;10411;48.148;7.704;2022-08-16T08:20:22;21.17;;;19.80;;
20505;SDS011;10411;48.148;7.704;2022-08-16T08:22:52;20.80;;;19.23;;
20505;SDS011;10411;48.148;7.704;2022-08-16T08:25:18;20.40;;;18.90;;
20505;SDS011;10411;48.148;7.704;2022-08-16T08:27:45;20.05;;;18.70;;
20505;SDS011;10411;48.148;7.704;2022-08-16T08:30:11;20.30;;;18.55;;
20505;SDS011;10411;48.148;7.704;2022-08-16T08:32:37;19.35;;;18.00;;
20505;SDS011;10411;48.148;7.704;2022-08-16T08:35:04;21.08;;;19.67;;
20505;SDS011;10411;48.148;7.704;2022-08-16T08:37:32;21.10;;;19.38;;
20505;SDS011;10411;48.148;7.704;2022-08-16T08:39:59;20.33;;;18.92;;
20505;SDS011;10411;48.148;7.704;2022-08-16T08:42:25;21.10;;;19.60;;
20505;SDS011;10411;48.148;7.704;2022-08-16T08:44:52;21.10;;;19.60;;
20505;SDS011;10411;48.148;7.704;2022-08-16T08:47:18;20.10;;;18.90;;
20505;SDS011;10411;48.148;7.704;2022-08-16T08:49:45;20.60;;;19.40;;
20505;SDS011;10411;48.148;7.704;2022-08-16T08:52:11;19.85;;;18.27;;
20505;SDS011;10411;48.148;7.704;2022-08-16T08:54:37;20.60;;;19.10;;
20505;SDS011;10411;48.148;7.704;2022-08-16T08:57:04;20.15;;;18.73;;
20505;SDS011;10411;48.148;7.704;2022-08-16T08:59:31;20.13;;;19.02;;
20505;SDS011;10411;48.148;7.704;2022-08-16T09:01:57;20.17;;;18.98;;
20505;SDS011;10411;48.148;7.704;2022-08-16T09:04:26;20.92;;;19.73;;
20505;SDS011;10411;48.148;7.704;2022-08-16T09:06:52;21.45;;;20.08;;
20505;SDS011;10411;48.148;7.704;2022-08-16T09:09:18;21.15;;;19.95;;
20505;SDS011;10411;48.148;7.704;2022-08-16T09:11:45;22.42;;;20.73;;
20505;SDS011;10411;48.148;7.704;2022-08-16T09:14:11;21.80;;;20.58;;
20505;SDS011;10411;48.148;7.704;2022-08-16T09:16:37;22.42;;;20.92;;
20505;SDS011;10411;48.148;7.704;2022-08-16T09:19:03;23.05;;;21.40;;
20505;SDS011;10411;48.148;7.704;2022-08-16T09:21:29;22.40;;;21.00;;
20505;SDS011;10411;48.148;7.704;2022-08-16T09:23:55;22.48;;;21.25;;
20505;SDS011;10411;48.148;7.704;2022-08-16T09:26:21;22.45;;;20.92;;
20505;SDS011;10411;48.148;7.704;2022-08-16T09:28:48;22.00;;;20.70;;
20505;SDS011;10411;48.148;7.704;2022-08-16T09:31:15;22.27;;;20.98;;
20505;SDS011;10411;48.148;7.704;2022-08-16T09:33:42;22.75;;;21.33;;
20505;SDS011;10411;48.148;7.704;2022-08-16T09:36:08;22.52;;;21.13;;
20505;SDS011;10411;48.148;7.704;2022-08-16T09:38:35;22.25;;;20.85;;
20505;SDS011;10411;48.148;7.704;2022-08-16T09:41:02;21.60;;;20.02;;
20505;SDS011;10411;48.148;7.704;2022-08-16T09:43:30;20.30;;;19.13;;
20505;SDS011;10411;48.148;7.704;2022-08-16T09:45:56;20.73;;;19.08;;
20505;SDS011;10411;48.148;7.704;2022-08-16T09:48:23;20.58;;;19.17;;
20505;SDS011;10411;48.148;7.704;2022-08-16T09:50:50;20.23;;;19.00;;
20505;SDS011;10411;48.148;7.704;2022-08-16T09:53:16;22.60;;;21.00;;
20505;SDS011;10411;48.148;7.704;2022-08-16T09:55:44;22.65;;;21.25;;
20505;SDS011;10411;48.148;7.704;2022-08-16T09:58:11;23.08;;;21.38;;
20505;SDS011;10411;48.148;7.704;2022-08-16T10:00:37;23.38;;;21.58;;
20505;SDS011;10411;48.148;7.704;2022-08-16T10:03:03;22.85;;;21.35;;
20505;SDS011;10411;48.148;7.704;2022-08-16T10:05:30;23.35;;;21.58;;
20505;SDS011;10411;48.148;7.704;2022-08-16T10:07:56;23.20;;;21.60;;
20505;SDS011;10411;48.148;7.704;2022-08-16T10:10:23;22.05;;;20.40;;
20505;SDS011;10411;48.148;7.704;2022-08-16T10:12:49;22.27;;;20.45;;
20505;SDS011;10411;48.148;7.704;2022-08-16T10:15:34;22.77;;;20.92;;
20505;SDS011;10411;48.148;7.704;2022-08-16T10:18:01;21.88;;;20.38;;
20505;SDS011;10411;48.148;7.704;2022-08-16T10:20:32;21.83;;;20.42;;
20505;SDS011;10411;48.148;7.704;2022-08-16T10:22:59;21.95;;;20.15;;
20505;SDS011;10411;48.148;7.704;2022-08-16T10:25:25;23.23;;;21.38;;
20505;SDS011;10411;48.148;7.704;2022-08-16T10:27:50;22.92;;;21.42;;
20505;SDS011;10411;48.148;7.704;2022-08-16T10:30:17;22.02;;;20.42;;
20505;SDS011;10411;48.148;7.704;2022-08-16T10:32:43;23.90;;;21.98;;
20505;SDS011;10411;48.148;7.704;2022-08-16T10:35:09;23.10;;;21.60;;
20505;SDS011;10411;48.148;7.704;2022-08-16T10:37:35;22.90;;;21.27;;
20505;SDS011;10411;48.148;7.704;2022-08-16T10:40:01;24.70;;;22.85;;
20505;SDS011;10411;48.148;7.704;2022-08-16T10:42:27;25.50;;;23.33;;
20505;SDS011;10411;48.148;7.704;2022-08-16T10:44:53;24.17;;;22.52;;
20505;SDS011;10411;48.148;7.704;2022-08-16T10:47:19;24.63;;;22.38;;
20505;SDS011;10411;48.148;7.704;2022-08-16T10:49:46;23.90;;;22.10;;
20505;SDS011;10411;48.148;7.704;2022-08-16T10:52:12;23.65;;;22.15;;
20505;SDS011;10411;48.148;7.704;2022-08-16T10:54:38;23.20;;;21.67;;
20505;SDS011;10411;48.148;7.704;2022-08-16T10:57:04;25.17;;;23.27;;
20505;SDS011;10411;48.148;7.704;2022-08-16T10:59:31;26.52;;;24.45;;
20505;SDS011;10411;48.148;7.704;2022-08-16T11:04:45;23.95;;;21.80;;
20505;SDS011;10411;48.148;7.704;2022-08-16T11:07:11;23.60;;;22.10;;
20505;SDS011;10411;48.148;7.704;2022-08-16T11:09:38;23.50;;;21.65;;
20505;SDS011;10411;48.148;7.704;2022-08-16T11:12:04;22.70;;;20.58;;
20505;SDS011;10411;48.148;7.704;2022-08-16T11:14:31;22.98;;;21.42;;
20505;SDS011;10411;48.148;7.704;2022-08-16T11:16:58;23.15;;;21.55;;
20505;SDS011;10411;48.148;7.704;2022-08-16T11:19:24;24.17;;;22.23;;
20505;SDS011;10411;48.148;7.704;2022-08-16T11:21:50;23.98;;;21.95;;
20505;SDS011;10411;48.148;7.704;2022-08-16T11:24:17;33.63;;;30.67;;
20505;SDS011;10411;48.148;7.704;2022-08-16T11:26:43;23.58;;;21.98;;
20505;SDS011;10411;48.148;7.704;2022-08-16T11:29:09;23.20;;;21.40;;
20505;SDS011;10411;48.148;7.704;2022-08-16T11:31:35;24.00;;;22.30;;
20505;SDS011;10411;48.148;7.704;2022-08-16T11:34:01;23.80;;;22.10;;
20505;SDS011;10411;48.148;7.704;2022-08-16T11:36:27;23.52;;;21.85;;
20505;SDS011;10411;48.148;7.704;2022-08-16T11:38:55;23.08;;;21.40;;
20505;SDS011;10411;48.148;7.704;2022-08-16T11:41:21;22.63;;;21.00;;
20505;SDS011;10411;48.148;7.704;2022-08-16T11:43:47;22.75;;;21.13;;
20505;SDS011;10411;48.148;7.704;2022-08-16T11:46:13;23.10;;;21.30;;
20505;SDS011;10411;48.148;7.704;2022-08-16T11:48:41;22.80;;;21.23;;
20505;SDS011;10411;48.148;7.704;2022-08-16T11:51:09;22.88;;;21.17;;
20505;SDS011;10411;48.148;7.704;2022-08-16T11:53:35;22.52;;;21.13;;
20505;SDS011;10411;48.148;7.704;2022-08-16T11:56:01;22.80;;;21.25;;
20505;SDS011;10411;48.148;7.704;2022-08-16T11:58:27;23.40;;;21.58;;
20505;SDS011;10411;48.148;7.704;2022-08-16T12:00:57;22.08;;;20.75;;
20505;SDS011;10411;48.148;7.704;2022-08-16T12:03:26;23.30;;;21.67;;
20505;SDS011;10411;48.148;7.704;2022-08-16T12:05:53;22.08;;;20.45;;
20505;SDS011;10411;48.148;7.704;2022-08-16T12:08:19;22.50;;;20.98;;
20505;SDS011;10411;48.148;7.704;2022-08-16T12:10:45;21.95;;;20.40;;
20505;SDS011;10411;48.148;7.704;2022-08-16T12:13:12;22.08;;;20.70;;
20505;SDS011;10411;48.148;7.704;2022-08-16T12:15:39;22.08;;;20.35;;
20505;SDS011;10411;48.148;7.704;2022-08-16T12:18:05;23.25;;;21.58;;
20505;SDS011;10411;48.148;7.704;2022-08-16T12:20:33;22.77;;;21.17;;
20505;SDS011;10411;48.148;7.704;2022-08-16T12:23:00;22.23;;;20.77;;
20505;SDS011;10411;48.148;7.704;2022-08-16T12:25:27;22.92;;;21.42;;
20505;SDS011;10411;48.148;7.704;2022-08-16T12:27:54;23.92;;;22.02;;
20505;SDS011;10411;48.148;7.704;2022-08-16T12:30:21;24.38;;;22.35;;
20505;SDS011;10411;48.148;7.704;2022-08-16T12:32:48;22.92;;;21.33;;
20505;SDS011;10411;48.148;7.704;2022-08-16T12:35:17;22.55;;;20.95;;
20505;SDS011;10411;48.148;7.704;2022-08-16T12:37:43;22.17;;;20.77;;
20505;SDS011;10411;48.148;7.704;2022-08-16T12:40:11;22.45;;;21.05;;
20505;SDS011;10411;48.148;7.704;2022-08-16T12:42:38;22.38;;;20.98;;
20505;SDS011;10411;48.148;7.704;2022-08-16T12:45:05;22.70;;;21.20;;
20505;SDS011;10411;48.148;7.704;2022-08-16T12:47:31;22.77;;;21.38;;
20505;SDS011;10411;48.148;7.704;2022-08-16T12:50:16;22.48;;;20.98;;
20505;SDS011;10411;48.148;7.704;2022-08-16T12:52:42;22.90;;;21.05;;
20505;SDS011;10411;48.148;7.704;2022-08-16T12:55:08;23.52;;;21.98;;
20505;SDS011;10411;48.148;7.704;2022-08-16T12:57:35;22.30;;;20.70;;
20505;SDS011;10411;48.148;7.704;2022-08-16T13:00:01;22.65;;;21.05;;
20505;SDS011;10411;48.148;7.704;2022-08-16T13:02:28;21.50;;;20.00;;
20505;SDS011;10411;48.148;7.704;2022-08-16T13:04:54;21.63;;;19.98;;
20505;SDS011;10411;48.148;7.704;2022-08-16T13:07:20;21.90;;;20.52;;
20505;SDS011;10411;48.148;7.704;2022-08-16T13:09:46;22.48;;;20.92;;
20505;SDS011;10411;48.148;7.704;2022-08-16T13:12:20;21.65;;;20.35;;
20505;SDS011;10411;48.148;7.704;2022-08-16T13:14:52;22.25;;;20.85;;
20505;SDS011;10411;48.148;7.704;2022-08-16T13:17:21;22.95;;;21.30;;
20505;SDS011;10411;48.148;7.704;2022-08-16T13:19:48;21.65;;;20.35;;
20505;SDS011;10411;48.148;7.704;2022-08-16T13:22:15;22.58;;;20.88;;
20505;SDS011;10411;48.148;7.704;2022-08-16T13:24:41;22.95;;;21.27;;
20505;SDS011;10411;48.148;7.704;2022-08-16T13:27:07;22.25;;;20.67;;
20505;SDS011;10411;48.148;7.704;2022-08-16T13:29:33;23.00;;;21.40;;
20505;SDS011;10411;48.148;7.704;2022-08-16T13:31:58;22.50;;;21.05;;
20505;SDS011;10411;48.148;7.704;2022-08-16T13:34:25;22.70;;;21.08;;
20505;SDS011;10411;48.148;7.704;2022-08-16T13:36:51;23.45;;;21.58;;
20505;SDS011;10411;48.148;7.704;2022-08-16T13:39:17;20.00;;;18.90;;
20505;SDS011;10411;48.148;7.704;2022-08-16T13:41:43;22.52;;;21.02;;
20505;SDS011;10411;48.148;7.704;2022-08-16T13:44:09;22.73;;;20.88;;
20505;SDS011;10411;48.148;7.704;2022-08-16T13:46:35;22.38;;;20.88;;
20505;SDS011;10411;48.148;7.704;2022-08-16T13:49:01;22.65;;;21.17;;
20505;SDS011;10411;48.148;7.704;2022-08-16T13:51:27;22.97;;;21.07;;
20505;SDS011;10411;48.148;7.704;2022-08-16T13:53:55;22.33;;;20.58;;
20505;SDS011;10411;48.148;7.704;2022-08-16T13:56:21;22.83;;;20.88;;
20505;SDS011;10411;48.148;7.704;2022-08-16T13:58:48;22.13;;;20.50;;
20505;SDS011;10411;48.148;7.704;2022-08-16T14:01:14;22.63;;;20.90;;
20505;SDS011;10411;48.148;7.704;2022-08-16T14:03:40;22.63;;;20.90;;
20505;SDS011;10411;48.148;7.704;2022-08-16T14:06:07;22.65;;;21.05;;
20505;SDS011;10411;48.148;7.704;2022-08-16T14:08:34;21.75;;;20.15;;
20505;SDS011;10411;48.148;7.704;2022-08-16T14:11:02;22.92;;;21.00;;
20505;SDS011;10411;48.148;7.704;2022-08-16T14:13:29;21.70;;;20.20;;
20505;SDS011;10411;48.148;7.704;2022-08-16T14:15:55;21.27;;;19.98;;
20505;SDS011;10411;48.148;7.704;2022-08-16T14:18:21;22.60;;;20.88;;
20505;SDS011;10411;48.148;7.704;2022-08-16T14:20:48;22.05;;;20.75;;
20505;SDS011;10411;48.148;7.704;2022-08-16T14:23:14;23.08;;;21.42;;
20505;SDS011;10411;48.148;7.704;2022-08-16T14:25:40;22.67;;;21.00;;